createdAt,value
2019-03-30T00:02:03.494Z,83.50
2019-03-30T00:04:34.588Z,83.77
2019-03-30T00:07:04.836Z,85.03
2019-03-30T00:09:35.108Z,80.00
2019-03-30T00:12:05.591Z,87.93
2019-03-30T00:14:35.907Z,85.03
2019-03-30T00:17:06.313Z,85.93
2019-03-30T00:19:36.495Z,81.90
2019-03-30T00:22:07.061Z,86.00
2019-03-30T00:24:38.800Z,83.63
2019-03-30T00:27:09.116Z,86.73
2019-03-30T00:29:39.111Z,74.83
2019-03-30T00:32:09.614Z,81.70
2019-03-30T00:34:39.560Z,79.30
2019-03-30T00:37:09.847Z,85.07
2019-03-30T00:39:40.476Z,93.97
2019-03-30T00:42:11.620Z,89.23
2019-03-30T00:44:42.277Z,89.57
2019-03-30T00:47:13.839Z,79.27
2019-03-30T00:49:49.791Z,79.33
2019-03-30T00:52:16.239Z,86.90
2019-03-30T00:54:46.433Z,94.67
2019-03-30T00:57:16.375Z,84.40
2019-03-30T00:59:46.666Z,99.57
2019-03-30T01:02:16.673Z,99.50
2019-03-30T01:04:46.719Z,100.40
2019-03-30T01:07:17.024Z,83.80
2019-03-30T01:09:48.258Z,99.70
2019-03-30T01:12:18.549Z,91.30
2019-03-30T01:14:48.773Z,78.77
2019-03-30T01:17:19.463Z,79.53
2019-03-30T01:20:02.415Z,86.07
2019-03-30T01:22:22.102Z,88.90
2019-03-30T01:24:52.040Z,84.23
2019-03-30T01:27:22.640Z,82.23
2019-03-30T01:29:52.497Z,85.30
2019-03-30T01:32:22.945Z,90.40
2019-03-30T01:34:56.773Z,93.10
2019-03-30T01:37:27.047Z,84.90
2019-03-30T01:39:57.304Z,80.57
2019-03-30T01:42:27.229Z,88.40
2019-03-30T01:44:57.441Z,83.93
2019-03-30T01:47:28.068Z,72.60
2019-03-30T01:49:58.056Z,79.43
2019-03-30T01:52:28.268Z,71.60
2019-03-30T01:54:59.343Z,82.63
2019-03-30T01:57:29.328Z,94.40
2019-03-30T02:00:00.151Z,88.20
2019-03-30T02:02:30.586Z,92.17
2019-03-30T02:05:01.428Z,82.27
2019-03-30T02:07:32.690Z,79.03
2019-03-30T02:10:02.734Z,87.33
2019-03-30T02:12:33.997Z,81.03
2019-03-30T02:15:04.147Z,86.47
2019-03-30T02:17:34.686Z,77.13
2019-03-30T02:20:05.648Z,82.40
2019-03-30T02:22:36.315Z,83.20
2019-03-30T02:25:07.433Z,79.60
2019-03-30T02:27:39.293Z,81.30
2019-03-30T02:30:09.770Z,87.80
2019-03-30T02:32:40.434Z,77.13
2019-03-30T02:35:11.647Z,85.50
2019-03-30T02:37:43.486Z,77.37
2019-03-30T02:40:13.783Z,83.07
2019-03-30T02:42:45.007Z,87.13
2019-03-30T02:45:15.118Z,92.13
2019-03-30T02:47:45.305Z,86.57
2019-03-30T02:50:15.833Z,98.27
2019-03-30T02:52:46.926Z,88.90
2019-03-30T02:55:17.406Z,85.93
2019-03-30T02:57:48.831Z,75.53
2019-03-30T03:00:19.892Z,82.90
2019-03-30T03:02:50.203Z,88.70
2019-03-30T03:05:25.097Z,80.07
2019-03-30T03:07:55.480Z,83.20
2019-03-30T03:10:27.743Z,80.47
2019-03-30T03:12:59.279Z,84.60
2019-03-30T03:15:29.546Z,81.23
2019-03-30T03:18:00.640Z,75.50
2019-03-30T03:20:32.285Z,82.57
2019-03-30T03:23:03.002Z,85.77
2019-03-30T03:25:33.149Z,87.20
2019-03-30T03:28:03.520Z,73.53
2019-03-30T03:30:33.566Z,89.67
2019-03-30T03:33:03.775Z,79.77
2019-03-30T03:35:34.169Z,80.43
2019-03-30T03:38:04.652Z,75.93
2019-03-30T03:40:34.642Z,84.20
2019-03-30T03:43:04.892Z,76.53
2019-03-30T03:45:34.923Z,79.60
2019-03-30T03:48:05.323Z,81.20
2019-03-30T03:50:42.496Z,81.47
2019-03-30T03:53:14.987Z,76.00
2019-03-30T03:55:45.752Z,84.90
2019-03-30T03:58:17.552Z,87.93
2019-03-30T04:00:51.013Z,85.17
2019-03-30T04:03:21.882Z,76.30
2019-03-30T04:05:53.601Z,91.43
2019-03-30T04:08:26.837Z,89.30
2019-03-30T04:10:58.874Z,78.17
2019-03-30T04:13:30.679Z,81.77
2019-03-30T04:16:00.676Z,84.30
2019-03-30T04:18:30.635Z,85.37
2019-03-30T04:21:00.623Z,81.53
2019-03-30T04:23:31.027Z,86.17
2019-03-30T04:26:01.043Z,92.77
2019-03-30T04:28:32.528Z,86.20
2019-03-30T04:31:03.100Z,83.20
2019-03-30T04:33:33.085Z,85.63
2019-03-30T04:36:04.212Z,79.30
2019-03-30T04:38:34.517Z,101.77
2019-03-30T04:41:05.685Z,101.33
2019-03-30T04:43:35.716Z,88.23
2019-03-30T04:46:07.043Z,83.90
2019-03-30T04:48:37.487Z,77.60
2019-03-30T04:51:08.534Z,91.50
2019-03-30T04:53:38.920Z,73.73
2019-03-30T04:56:08.853Z,77.80
2019-03-30T04:58:39.193Z,92.37
2019-03-30T05:01:09.413Z,97.30
2019-03-30T05:03:40.437Z,98.40
2019-03-30T05:06:10.685Z,87.03
2019-03-30T05:08:41.612Z,78.63
2019-03-30T05:11:11.998Z,81.37
2019-03-30T05:13:42.112Z,93.43
2019-03-30T05:16:12.312Z,87.90
2019-03-30T05:18:43.657Z,98.77
2019-03-30T05:21:13.849Z,78.73
2019-03-30T05:23:43.813Z,74.60
2019-03-30T05:26:14.304Z,76.30
2019-03-30T05:28:44.604Z,77.90
2019-03-30T05:31:14.526Z,93.07
2019-03-30T05:33:44.469Z,74.93
2019-03-30T05:36:14.357Z,83.70
2019-03-30T05:38:44.873Z,84.83
2019-03-30T05:41:15.169Z,79.90
2019-03-30T05:43:46.843Z,81.77
2019-03-30T05:46:16.686Z,85.87
2019-03-30T05:48:46.845Z,86.17
2019-03-30T05:51:16.834Z,88.83
2019-03-30T05:53:46.771Z,88.80
2019-03-30T05:56:16.864Z,88.33
2019-03-30T05:58:47.090Z,83.37
2019-03-30T06:01:17.480Z,79.17
2019-03-30T06:03:48.292Z,79.63
2019-03-30T06:06:18.832Z,88.23
2019-03-30T06:08:49.166Z,92.30
2019-03-30T06:11:19.692Z,87.23
2019-03-30T06:13:49.797Z,68.57
2019-03-30T06:16:20.538Z,78.03
2019-03-30T06:18:50.915Z,83.00
2019-03-30T06:21:21.040Z,89.13
2019-03-30T06:23:51.654Z,69.67
2019-03-30T06:26:21.938Z,79.37
2019-03-30T06:28:52.772Z,78.87
2019-03-30T06:31:23.709Z,95.87
2019-03-30T06:33:54.987Z,86.97
2019-03-30T06:36:24.933Z,81.77
2019-03-30T06:38:55.117Z,83.17
2019-03-30T06:41:26.141Z,88.30
2019-03-30T06:43:56.443Z,82.07
2019-03-30T06:46:26.332Z,87.03
2019-03-30T06:48:56.199Z,88.67
2019-03-30T06:51:26.105Z,82.77
2019-03-30T06:53:56.794Z,84.13
2019-03-30T06:56:27.177Z,84.10
2019-03-30T06:58:57.617Z,75.27
2019-03-30T07:01:28.117Z,78.43
2019-03-30T07:03:58.210Z,74.97
2019-03-30T07:06:29.433Z,72.13
2019-03-30T07:09:02.631Z,64.13
2019-03-30T07:11:37.650Z,53.33
2019-03-30T07:14:07.745Z,52.63
2019-03-30T07:16:39.130Z,48.33
2019-03-30T07:19:09.226Z,45.13
2019-03-30T07:21:39.783Z,42.13
2019-03-30T07:24:10.128Z,43.53
2019-03-30T07:26:40.047Z,40.60
2019-03-30T07:29:11.941Z,43.73
2019-03-30T07:31:41.886Z,40.30
2019-03-30T07:34:11.976Z,43.73
2019-03-30T07:36:41.905Z,43.17
2019-03-30T07:39:11.805Z,40.67
2019-03-30T07:41:42.341Z,35.30
2019-03-30T07:44:12.364Z,41.40
2019-03-30T07:46:42.534Z,38.43
2019-03-30T07:49:12.911Z,38.43
2019-03-30T07:51:43.958Z,40.43
2019-03-30T07:54:14.146Z,39.80
2019-03-30T07:56:44.016Z,46.90
2019-03-30T07:59:14.098Z,40.37
2019-03-30T08:01:44.244Z,38.60
2019-03-30T08:04:15.098Z,38.37
2019-03-30T08:06:46.746Z,41.17
2019-03-30T08:09:18.146Z,41.10
2019-03-30T08:11:48.199Z,35.23
2019-03-30T08:14:18.462Z,36.00
2019-03-30T08:16:50.013Z,38.60
2019-03-30T08:19:21.734Z,36.87
2019-03-30T08:21:52.031Z,34.80
2019-03-30T08:24:22.621Z,37.33
2019-03-30T08:26:52.820Z,37.40
2019-03-30T08:29:23.085Z,39.57
2019-03-30T08:31:53.212Z,36.50
2019-03-30T08:34:23.637Z,36.13
2019-03-30T08:36:53.606Z,35.03
2019-03-30T08:39:24.484Z,36.10
2019-03-30T08:41:54.721Z,35.00
2019-03-30T08:44:24.937Z,32.80
2019-03-30T08:46:55.153Z,37.40
2019-03-30T08:49:25.178Z,31.17
2019-03-30T08:51:55.111Z,37.23
2019-03-30T08:54:25.293Z,35.10
2019-03-30T08:56:55.550Z,35.80
2019-03-30T08:59:25.759Z,36.53
2019-03-30T09:01:56.076Z,36.33
2019-03-30T09:04:26.380Z,34.40
2019-03-30T09:06:56.816Z,33.93
2019-03-30T09:09:29.295Z,38.20
2019-03-30T09:11:59.241Z,35.77
2019-03-30T09:14:33.733Z,39.23
2019-03-30T09:17:05.046Z,36.60
2019-03-30T09:19:37.612Z,37.17
2019-03-30T09:22:08.000Z,41.03
2019-03-30T09:24:38.590Z,37.23
2019-03-30T09:27:08.724Z,38.27
2019-03-30T09:29:39.204Z,35.97
2019-03-30T09:32:14.664Z,38.47
2019-03-30T09:34:41.181Z,41.43
2019-03-30T09:37:11.114Z,42.08
2019-03-30T09:39:40.960Z,47.43
2019-03-30T09:42:11.251Z,44.30
2019-03-30T09:44:42.552Z,46.53
2019-03-30T09:47:13.188Z,42.67
2019-03-30T09:49:48.354Z,42.07
2019-03-30T09:52:19.377Z,42.17
2019-03-30T09:54:52.383Z,44.27
2019-03-30T09:57:22.298Z,45.07
2019-03-30T09:59:52.666Z,51.40
2019-03-30T10:02:22.894Z,49.23
2019-03-30T10:04:53.116Z,43.50
2019-03-30T10:07:23.172Z,47.47
2019-03-30T10:09:53.307Z,46.60
2019-03-30T10:12:25.904Z,50.60
2019-03-30T10:14:56.615Z,41.83
2019-03-30T10:17:26.628Z,48.83
2019-03-30T10:20:04.320Z,47.60
2019-03-30T10:22:28.817Z,45.03
2019-03-30T10:24:58.772Z,43.70
2019-03-30T10:27:29.628Z,45.03
2019-03-30T10:29:59.682Z,46.47
2019-03-30T10:32:32.718Z,49.00
2019-03-30T10:35:03.523Z,49.67
2019-03-30T10:37:33.711Z,47.37
2019-03-30T10:40:03.915Z,44.20
2019-03-30T10:42:34.378Z,46.07
2019-03-30T10:45:05.034Z,50.53
2019-03-30T10:47:35.617Z,48.80
2019-03-30T10:50:06.773Z,50.97
2019-03-30T10:52:37.194Z,46.77
2019-03-30T10:55:07.173Z,51.13
2019-03-30T10:57:39.719Z,48.60
2019-03-30T11:00:11.864Z,51.30
2019-03-30T11:02:42.004Z,48.90
2019-03-30T11:05:12.152Z,44.87
2019-03-30T11:07:42.055Z,50.83
2019-03-30T11:10:12.026Z,46.77
2019-03-30T11:12:42.123Z,45.10
2019-03-30T11:15:12.051Z,42.37
2019-03-30T11:17:42.813Z,47.77
2019-03-30T11:20:12.906Z,50.33
2019-03-30T11:22:43.180Z,47.27
2019-03-30T11:25:13.265Z,44.70
2019-03-30T11:27:43.887Z,43.90
2019-03-30T11:30:14.197Z,47.70
2019-03-30T11:32:44.285Z,44.70
2019-03-30T11:35:14.199Z,51.93
2019-03-30T11:37:44.089Z,50.23
2019-03-30T11:40:15.850Z,45.97
2019-03-30T11:42:46.014Z,47.17
2019-03-30T11:45:16.479Z,48.10
2019-03-30T11:47:46.491Z,46.07
2019-03-30T11:50:16.823Z,48.95
2019-03-30T11:52:46.691Z,52.90
2019-03-30T11:55:22.058Z,60.07
2019-03-30T11:57:51.317Z,55.37
2019-03-30T12:00:21.773Z,52.77
2019-03-30T12:02:51.747Z,53.20
2019-03-30T12:05:22.148Z,51.93
2019-03-30T12:07:52.331Z,53.30
2019-03-30T12:10:22.656Z,50.17
2019-03-30T12:12:54.607Z,50.50
2019-03-30T12:15:24.470Z,51.33
2019-03-30T12:17:54.290Z,47.83
2019-03-30T12:20:25.254Z,47.00
2019-03-30T12:22:55.344Z,51.80
2019-03-30T12:25:35.487Z,49.77
2019-03-30T12:27:58.145Z,47.37
2019-03-30T12:30:28.397Z,52.37
2019-03-30T12:32:59.302Z,53.67
2019-03-30T12:35:29.474Z,56.53
2019-03-30T12:37:59.982Z,56.17
2019-03-30T12:40:30.961Z,49.40
2019-03-30T12:43:01.392Z,40.23
2019-03-30T12:45:31.495Z,45.43
2019-03-30T12:48:01.627Z,42.23
2019-03-30T12:50:31.810Z,47.60
2019-03-30T12:53:01.698Z,41.03
2019-03-30T12:55:33.388Z,40.03
2019-03-30T12:58:03.255Z,48.87
2019-03-30T13:00:33.359Z,49.23
2019-03-30T13:03:03.200Z,52.40
2019-03-30T13:05:33.153Z,42.03
2019-03-30T13:08:03.164Z,51.90
2019-03-30T13:10:34.504Z,51.73
2019-03-30T13:13:04.801Z,53.87
2019-03-30T13:15:35.689Z,53.37
2019-03-30T13:18:06.228Z,53.70
2019-03-30T13:20:36.773Z,55.60
2019-03-30T13:23:07.223Z,54.00
2019-03-30T13:25:37.409Z,52.20
2019-03-30T13:28:07.260Z,50.83
2019-03-30T13:30:38.593Z,57.63
2019-03-30T13:33:12.560Z,60.57
2019-03-30T13:35:42.676Z,64.73
2019-03-30T13:38:13.626Z,61.53
2019-03-30T13:40:45.361Z,75.27
2019-03-30T13:43:15.541Z,61.80
2019-03-30T13:45:45.914Z,61.80
2019-03-30T13:48:16.052Z,66.07
2019-03-30T13:50:45.853Z,59.67
2019-03-30T13:53:15.769Z,63.57
2019-03-30T13:55:45.750Z,63.47
2019-03-30T13:58:15.623Z,66.93
2019-03-30T14:00:46.833Z,61.07
2019-03-30T14:03:17.305Z,59.87
2019-03-30T14:05:47.849Z,53.93
2019-03-30T14:08:18.412Z,58.03
2019-03-30T14:10:48.195Z,61.80
2019-03-30T14:13:19.783Z,62.47
2019-03-30T14:15:57.759Z,60.20
2019-03-30T14:18:27.905Z,61.53
2019-03-30T14:20:58.020Z,56.20
2019-03-30T14:23:27.859Z,65.43
2019-03-30T14:25:58.815Z,62.93
2019-03-30T14:28:29.169Z,69.93
2019-03-30T14:30:59.251Z,70.47
2019-03-30T14:33:30.228Z,70.40
2019-03-30T14:36:00.420Z,71.03
2019-03-30T14:38:30.273Z,71.03
2019-03-30T14:41:03.839Z,69.67
2019-03-30T14:43:33.493Z,71.00
2019-03-30T14:46:03.518Z,68.33
2019-03-30T14:48:34.113Z,65.80
2019-03-30T14:51:03.972Z,63.87
2019-03-30T14:53:34.046Z,57.20
2019-03-30T14:56:04.011Z,58.87
2019-03-30T14:58:35.617Z,59.03
2019-03-30T15:01:06.188Z,58.93
2019-03-30T15:03:36.230Z,61.90
2019-03-30T15:06:07.183Z,56.60
2019-03-30T15:08:38.276Z,61.03
2019-03-30T15:11:08.615Z,74.57
2019-03-30T15:13:38.408Z,65.47
2019-03-30T15:16:08.638Z,61.30
2019-03-30T15:18:39.101Z,59.90
2019-03-30T15:21:11.880Z,56.00
2019-03-30T15:23:42.825Z,56.67
2019-03-30T15:26:13.325Z,61.93
2019-03-30T15:28:43.703Z,58.83
2019-03-30T15:31:13.561Z,58.57
2019-03-30T15:33:43.720Z,57.83
2019-03-30T15:36:13.533Z,64.40
2019-03-30T15:38:43.692Z,63.37
2019-03-30T15:41:13.964Z,55.53
2019-03-30T15:43:44.178Z,50.23
2019-03-30T15:46:14.432Z,50.67
2019-03-30T15:48:44.663Z,49.23
2019-03-30T15:51:14.956Z,48.87
2019-03-30T15:53:45.594Z,54.00
2019-03-30T15:56:15.772Z,51.90
2019-03-30T15:58:45.715Z,52.03
2019-03-30T16:01:18.924Z,49.60
2019-03-30T16:03:51.699Z,51.03
2019-03-30T16:06:23.847Z,48.00
2019-03-30T16:08:53.817Z,47.07
2019-03-30T16:11:24.075Z,48.37
2019-03-30T16:13:57.750Z,49.50
2019-03-30T16:16:28.096Z,48.87
2019-03-30T16:18:58.137Z,55.30
2019-03-30T16:21:38.028Z,51.67
2019-03-30T16:24:08.000Z,55.70
2019-03-30T16:26:42.352Z,57.50
2019-03-30T16:29:12.720Z,61.20
2019-03-30T16:31:42.690Z,58.83
2019-03-30T16:34:13.151Z,54.87
2019-03-30T16:36:43.273Z,57.63
2019-03-30T16:39:14.051Z,64.83
2019-03-30T16:41:44.037Z,54.90
2019-03-30T16:44:18.516Z,51.73
2019-03-30T16:46:48.810Z,56.37
2019-03-30T16:49:19.010Z,56.47
2019-03-30T16:51:49.686Z,47.40
2019-03-30T16:54:19.741Z,42.20
2019-03-30T16:56:55.157Z,47.30
2019-03-30T16:59:26.910Z,46.57
2019-03-30T17:02:00.306Z,54.43
2019-03-30T17:04:35.705Z,48.17
2019-03-30T17:07:05.788Z,50.63
2019-03-30T17:09:45.205Z,57.07
2019-03-30T17:12:15.632Z,47.77
2019-03-30T17:14:45.958Z,52.90
2019-03-30T17:17:19.874Z,48.27
2019-03-30T17:19:49.939Z,52.47
2019-03-30T17:22:20.314Z,51.67
2019-03-30T17:24:50.971Z,51.87
2019-03-30T17:27:20.982Z,50.40
2019-03-30T17:29:51.817Z,52.63
2019-03-30T17:32:22.734Z,50.47
2019-03-30T17:34:52.659Z,49.60
2019-03-30T17:37:23.082Z,51.03
2019-03-30T17:39:53.250Z,49.73
2019-03-30T17:42:23.704Z,59.37
2019-03-30T17:44:54.128Z,52.43
2019-03-30T17:47:24.376Z,52.10
2019-03-30T17:49:54.547Z,48.13
2019-03-30T17:52:26.465Z,44.80
2019-03-30T17:54:58.175Z,52.87
2019-03-30T17:57:28.492Z,56.20
2019-03-30T17:59:59.273Z,52.70
2019-03-30T18:02:29.593Z,53.13
2019-03-30T18:05:00.106Z,49.47
2019-03-30T18:07:30.196Z,53.63
2019-03-30T18:10:03.306Z,50.53
2019-03-30T18:12:32.740Z,57.57
2019-03-30T18:15:03.064Z,59.43
2019-03-30T18:17:33.099Z,67.00
2019-03-30T18:20:03.058Z,64.63
2019-03-30T18:22:33.445Z,67.93
2019-03-30T18:25:03.699Z,72.23
2019-03-30T18:27:35.061Z,73.93
2019-03-30T18:30:06.047Z,73.93
2019-03-30T18:32:36.764Z,68.03
2019-03-30T18:35:06.781Z,71.47
2019-03-30T18:37:36.768Z,74.07
2019-03-30T18:40:08.077Z,73.90
2019-03-30T18:42:41.315Z,77.60
2019-03-30T18:45:22.266Z,71.93
2019-03-30T18:47:52.339Z,62.03
2019-03-30T18:50:23.141Z,48.87
2019-03-30T18:53:02.914Z,55.37
2019-03-30T18:55:33.253Z,49.60
2019-03-30T18:58:04.451Z,45.83
2019-03-30T19:00:37.141Z,46.70
2019-03-30T19:03:10.330Z,46.03
2019-03-30T19:05:41.026Z,47.10
2019-03-30T19:08:13.981Z,50.30
2019-03-30T19:10:44.515Z,48.83
2019-03-30T19:13:18.474Z,58.87
2019-03-30T19:15:49.329Z,53.37
2019-03-30T19:18:19.620Z,50.40
2019-03-30T19:20:50.069Z,52.37
2019-03-30T19:23:21.059Z,63.77
2019-03-30T19:25:52.148Z,54.77
2019-03-30T19:28:22.079Z,60.90
2019-03-30T19:30:52.484Z,57.40
2019-03-30T19:33:25.578Z,55.17
2019-03-30T19:35:55.640Z,62.27
2019-03-30T19:38:27.171Z,56.40
2019-03-30T19:40:57.378Z,63.83
2019-03-30T19:43:30.136Z,65.60
2019-03-30T19:46:00.372Z,64.40
2019-03-30T19:48:30.661Z,66.47
2019-03-30T19:51:01.624Z,62.27
2019-03-30T19:53:34.754Z,59.60
2019-03-30T19:56:05.695Z,71.00
2019-03-30T19:58:36.432Z,66.77
2019-03-30T20:01:06.526Z,68.07
2019-03-30T20:03:36.508Z,56.17
2019-03-30T20:06:06.568Z,58.33
2019-03-30T20:08:36.808Z,68.87
2019-03-30T20:11:06.705Z,71.13
2019-03-30T20:13:36.594Z,75.60
2019-03-30T20:16:06.614Z,67.20
2019-03-30T20:18:36.485Z,72.30
2019-03-30T20:21:07.252Z,79.73
2019-03-30T20:23:37.569Z,78.30
2019-03-30T20:26:07.734Z,77.17
2019-03-30T20:28:38.434Z,74.63
2019-03-30T20:31:08.384Z,80.43
2019-03-30T20:33:38.568Z,83.83
2019-03-30T20:36:08.937Z,80.73
2019-03-30T20:38:39.281Z,81.70
2019-03-30T20:41:11.283Z,87.22
2019-03-30T20:43:41.535Z,85.73
2019-03-30T20:46:11.671Z,85.23
2019-03-30T20:48:41.680Z,79.87
2019-03-30T20:51:11.781Z,81.10
2019-03-30T20:53:42.317Z,82.93
2019-03-30T20:56:15.633Z,84.70
2019-03-30T20:58:45.630Z,93.97
2019-03-30T21:01:16.000Z,82.10
2019-03-30T21:03:46.284Z,87.10
2019-03-30T21:06:16.541Z,83.60
2019-03-30T21:08:46.733Z,90.90
2019-03-30T21:11:17.113Z,87.27
2019-03-30T21:13:47.034Z,99.87
2019-03-30T21:16:17.161Z,82.83
2019-03-30T21:18:47.241Z,89.30
2019-03-30T21:21:20.205Z,92.57
2019-03-30T21:23:50.182Z,89.57
2019-03-30T21:26:20.240Z,84.63
2019-03-30T21:28:50.310Z,95.57
2019-03-30T21:31:20.372Z,93.93
2019-03-30T21:33:50.373Z,100.03
2019-03-30T21:36:20.274Z,98.90
2019-03-30T21:38:50.331Z,87.80
2019-03-30T21:41:20.851Z,92.53
2019-03-30T21:43:50.836Z,97.57
2019-03-30T21:46:21.470Z,93.93
2019-03-30T21:48:53.405Z,96.73
2019-03-30T21:51:35.817Z,110.37
2019-03-30T21:54:05.851Z,103.67
2019-03-30T21:56:35.894Z,105.60
2019-03-30T21:59:06.350Z,108.47
2019-03-30T22:01:42.152Z,101.47
2019-03-30T22:04:35.578Z,93.33
2019-03-30T22:07:16.991Z,93.17
2019-03-30T22:09:49.982Z,94.47
2019-03-30T22:12:20.142Z,94.60
2019-03-30T22:14:50.386Z,89.60
2019-03-30T22:17:23.042Z,96.67
2019-03-30T22:19:53.306Z,103.30
2019-03-30T22:22:23.397Z,92.30
2019-03-30T22:24:54.586Z,98.03
2019-03-30T22:27:25.053Z,104.67
2019-03-30T22:29:55.563Z,108.53
2019-03-30T22:32:27.960Z,90.80
2019-03-30T22:34:57.917Z,99.77
2019-03-30T22:37:30.996Z,108.33
2019-03-30T22:40:01.290Z,103.43
2019-03-30T22:42:31.158Z,101.63
2019-03-30T22:45:03.183Z,105.20
2019-03-30T22:47:33.174Z,95.17
2019-03-30T22:50:03.171Z,108.43
2019-03-30T22:52:33.500Z,96.20
2019-03-30T22:55:12.685Z,106.47
2019-03-30T22:57:44.458Z,116.80
2019-03-30T23:00:38.658Z,109.07
2019-03-30T23:03:05.954Z,127.00
2019-03-30T23:05:38.573Z,120.93
2019-03-30T23:08:13.627Z,115.60
2019-03-30T23:10:43.672Z,123.23
2019-03-30T23:13:13.574Z,122.20
2019-03-30T23:15:44.806Z,127.97
2019-03-30T23:18:14.686Z,134.40
2019-03-30T23:20:44.869Z,116.07
2019-03-30T23:23:14.861Z,119.93
2019-03-30T23:25:44.989Z,129.23
2019-03-30T23:28:15.586Z,129.50
2019-03-30T23:30:54.214Z,134.03
2019-03-30T23:33:17.687Z,139.17
2019-03-30T23:35:48.119Z,143.33
2019-03-30T23:38:19.321Z,125.90
2019-03-30T23:40:49.564Z,127.13
2019-03-30T23:43:22.271Z,153.40
2019-03-30T23:45:52.640Z,137.90
2019-03-30T23:48:25.375Z,135.83
2019-03-30T23:50:55.859Z,129.40
2019-03-30T23:53:28.507Z,139.67
2019-03-30T23:56:00.064Z,131.67
2019-03-30T23:58:30.307Z,136.37
